createdAt,value
2023-03-28T00:01:47.318Z,1.23
2023-03-28T00:04:13.157Z,0.50
2023-03-28T00:06:40.913Z,0.70
2023-03-28T00:09:07.451Z,1.60
2023-03-28T00:11:33.185Z,0.50
2023-03-28T00:14:00.119Z,0.97
2023-03-28T00:16:26.871Z,0.60
2023-03-28T00:18:52.981Z,0.70
2023-03-28T00:21:24.112Z,0.70
2023-03-28T00:23:53.825Z,0.40
2023-03-28T00:26:20.279Z,1.53
2023-03-28T00:28:46.918Z,0.70
2023-03-28T00:31:13.066Z,0.50
2023-03-28T00:33:38.803Z,0.60
2023-03-28T00:36:04.932Z,0.73
2023-03-28T00:38:31.439Z,1.03
2023-03-28T00:40:57.218Z,0.87
2023-03-28T00:43:37.066Z,0.70
2023-03-28T00:46:09.157Z,2.17
2023-03-28T00:48:35.923Z,1.13
2023-03-28T00:51:03.027Z,0.83
2023-03-28T00:53:31.509Z,2.00
2023-03-28T00:56:01.211Z,0.80
2023-03-28T00:58:30.378Z,1.20
2023-03-28T01:00:56.305Z,1.10
2023-03-28T01:03:26.906Z,0.80
2023-03-28T01:05:53.353Z,0.73
2023-03-28T01:08:26.765Z,0.60
2023-03-28T01:10:52.539Z,1.33
2023-03-28T01:13:19.090Z,1.00
2023-03-28T01:15:45.381Z,0.93
2023-03-28T01:18:11.745Z,0.83
2023-03-28T01:20:40.489Z,0.80
2023-03-28T01:23:06.247Z,0.80
2023-03-28T01:25:31.952Z,1.00
2023-03-28T01:28:06.918Z,0.90
2023-03-28T01:30:41.795Z,0.70
2023-03-28T01:33:10.640Z,0.60
2023-03-28T01:35:55.013Z,1.10
2023-03-28T01:38:23.802Z,1.07
2023-03-28T01:41:07.035Z,1.17
2023-03-28T01:43:45.939Z,1.07
2023-03-28T01:46:23.089Z,1.10
2023-03-28T01:49:07.946Z,1.27
2023-03-28T01:51:52.246Z,1.70
2023-03-28T01:54:44.499Z,1.80
2023-03-28T01:57:16.885Z,1.40
2023-03-28T01:59:58.404Z,1.40
2023-03-28T02:02:56.672Z,1.27
2023-03-28T02:05:23.388Z,1.40
2023-03-28T02:07:51.178Z,1.10
2023-03-28T02:10:19.119Z,1.30
2023-03-28T02:12:47.709Z,1.17
2023-03-28T02:15:15.665Z,1.17
2023-03-28T02:17:44.535Z,1.80
2023-03-28T02:20:14.125Z,2.20
2023-03-28T02:22:52.204Z,1.27
2023-03-28T02:25:18.130Z,1.07
2023-03-28T02:27:45.273Z,2.43
2023-03-28T02:30:11.850Z,1.17
2023-03-28T02:32:38.054Z,1.50
2023-03-28T02:35:05.165Z,2.10
2023-03-28T02:37:50.095Z,1.73
2023-03-28T02:40:31.403Z,1.23
2023-03-28T02:43:07.032Z,1.80
2023-03-28T02:45:43.063Z,1.20
2023-03-28T02:48:08.808Z,0.90
2023-03-28T02:50:42.280Z,1.50
2023-03-28T02:53:26.384Z,0.67
2023-03-28T02:55:55.139Z,0.93
2023-03-28T02:58:25.767Z,0.87
2023-03-28T03:00:51.528Z,1.00
2023-03-28T03:03:17.289Z,1.10
2023-03-28T03:05:43.238Z,1.03
2023-03-28T03:08:09.110Z,1.10
2023-03-28T03:10:34.965Z,1.10
2023-03-28T03:13:00.711Z,0.90
2023-03-28T03:15:30.183Z,0.80
2023-03-28T03:17:57.988Z,1.60
2023-03-28T03:20:25.552Z,1.40
2023-03-28T03:22:51.908Z,1.30
2023-03-28T03:25:17.616Z,1.00
2023-03-28T03:27:43.325Z,1.40
2023-03-28T03:30:09.460Z,1.27
2023-03-28T03:32:36.028Z,0.90
2023-03-28T03:35:01.951Z,1.13
2023-03-28T03:37:27.676Z,1.03
2023-03-28T03:39:53.405Z,1.07
2023-03-28T03:42:19.163Z,1.47
2023-03-28T03:44:44.982Z,1.47
2023-03-28T03:47:10.938Z,1.20
2023-03-28T03:49:37.401Z,1.00
2023-03-28T03:52:03.284Z,0.90
2023-03-28T03:54:28.994Z,1.17
2023-03-28T03:56:54.739Z,0.83
2023-03-28T03:59:20.476Z,0.90
2023-03-28T04:01:46.246Z,1.00
2023-03-28T04:04:12.348Z,1.03
2023-03-28T04:06:38.429Z,1.30
2023-03-28T04:09:05.132Z,1.30
2023-03-28T04:11:30.871Z,2.40
2023-03-28T04:13:56.683Z,1.07
2023-03-28T04:16:23.155Z,1.00
2023-03-28T04:18:52.198Z,1.37
2023-03-28T04:21:20.064Z,1.53
2023-03-28T04:23:47.648Z,0.83
2023-03-28T04:26:20.030Z,1.37
2023-03-28T04:28:47.503Z,1.20
2023-03-28T04:31:18.742Z,1.20
2023-03-28T04:33:48.974Z,1.33
2023-03-28T04:36:18.257Z,1.10
2023-03-28T04:38:45.156Z,1.43
2023-03-28T04:41:11.976Z,1.00
2023-03-28T04:43:37.699Z,1.47
2023-03-28T04:46:03.844Z,1.20
2023-03-28T04:48:30.727Z,0.80
2023-03-28T04:50:56.838Z,0.97
2023-03-28T04:53:23.951Z,1.60
2023-03-28T04:55:49.778Z,1.80
2023-03-28T04:58:16.459Z,1.03
2023-03-28T05:00:43.628Z,1.43
2023-03-28T05:03:12.829Z,1.20
2023-03-28T05:05:38.999Z,1.53
2023-03-28T05:08:04.967Z,1.40
2023-03-28T05:10:30.751Z,0.90
2023-03-28T05:12:57.863Z,1.07
2023-03-28T05:15:24.663Z,1.40
2023-03-28T05:17:50.513Z,1.73
2023-03-28T05:20:18.981Z,1.67
2023-03-28T05:22:44.912Z,2.17
2023-03-28T05:25:10.770Z,1.20
2023-03-28T05:27:38.092Z,1.20
2023-03-28T05:30:05.178Z,1.00
2023-03-28T05:32:31.038Z,1.13
2023-03-28T05:34:57.368Z,1.33
2023-03-28T05:37:24.013Z,0.93
2023-03-28T05:39:54.656Z,0.97
2023-03-28T05:42:20.808Z,0.87
2023-03-28T05:44:46.723Z,1.20
2023-03-28T05:47:12.541Z,0.90
2023-03-28T05:49:38.473Z,1.00
2023-03-28T05:52:04.474Z,1.00
2023-03-28T05:54:30.716Z,1.00
2023-03-28T05:56:56.625Z,1.47
2023-03-28T05:59:24.285Z,1.77
2023-03-28T06:01:52.120Z,1.13
2023-03-28T06:04:18.538Z,1.13
2023-03-28T06:06:45.041Z,1.17
2023-03-28T06:09:11.640Z,0.90
2023-03-28T06:11:37.673Z,1.47
2023-03-28T06:14:03.471Z,1.57
2023-03-28T06:16:31.349Z,1.87
2023-03-28T06:19:06.947Z,1.00
2023-03-28T06:21:40.694Z,1.10
2023-03-28T06:24:06.740Z,0.90
2023-03-28T06:26:32.858Z,2.07
2023-03-28T06:28:58.664Z,0.93
2023-03-28T06:31:24.659Z,1.57
2023-03-28T06:33:50.497Z,0.90
2023-03-28T06:36:16.484Z,1.00
2023-03-28T06:38:42.348Z,1.13
2023-03-28T06:41:08.226Z,1.10
2023-03-28T06:43:34.192Z,1.20
2023-03-28T06:46:00.522Z,1.30
2023-03-28T06:48:30.844Z,2.33
2023-03-28T06:50:59.258Z,0.80
2023-03-28T06:53:25.632Z,0.97
2023-03-28T06:55:52.072Z,0.87
2023-03-28T06:58:19.440Z,1.37
2023-03-28T07:00:45.509Z,0.90
2023-03-28T07:03:11.614Z,0.93
2023-03-28T07:05:39.155Z,1.57
2023-03-28T07:08:05.817Z,1.03
2023-03-28T07:10:31.881Z,1.20
2023-03-28T07:12:57.728Z,1.10
2023-03-28T07:15:23.684Z,1.30
2023-03-28T07:17:49.564Z,1.20
2023-03-28T07:20:15.612Z,1.17
2023-03-28T07:22:41.414Z,3.17
2023-03-28T07:25:07.708Z,0.93
2023-03-28T07:27:33.859Z,1.00
2023-03-28T07:29:59.890Z,1.17
2023-03-28T07:32:38.718Z,1.00
2023-03-28T07:35:08.788Z,1.30
2023-03-28T07:37:34.964Z,0.80
2023-03-28T07:40:00.993Z,0.90
2023-03-28T07:42:27.282Z,1.00
2023-03-28T07:44:53.681Z,1.00
2023-03-28T07:47:19.974Z,1.13
2023-03-28T07:49:46.807Z,1.20
2023-03-28T07:52:13.297Z,1.83
2023-03-28T07:54:39.500Z,1.10
2023-03-28T07:57:05.827Z,1.63
2023-03-28T07:59:31.845Z,1.00
2023-03-28T08:02:02.919Z,1.33
2023-03-28T08:04:28.724Z,0.97
2023-03-28T08:06:54.549Z,0.70
2023-03-28T08:09:20.740Z,1.07
2023-03-28T08:11:47.321Z,0.77
2023-03-28T08:14:14.864Z,0.80
2023-03-28T08:16:41.273Z,0.87
2023-03-28T08:19:11.373Z,0.60
2023-03-28T08:24:04.403Z,0.77
2023-03-28T08:26:30.672Z,1.23
2023-03-28T08:28:58.223Z,1.10
2023-03-28T08:31:26.242Z,0.90
2023-03-28T08:33:52.800Z,0.70
2023-03-28T08:36:19.965Z,0.80
2023-03-28T08:38:46.751Z,1.00
2023-03-28T08:41:27.853Z,1.00
2023-03-28T08:43:53.636Z,0.60
2023-03-28T08:46:21.957Z,0.55
2023-03-28T08:48:49.979Z,0.90
2023-03-28T08:51:34.859Z,0.63
2023-03-28T08:54:16.855Z,0.73
2023-03-28T08:56:45.331Z,0.50
2023-03-28T08:59:13.430Z,0.50
2023-03-28T09:01:40.135Z,0.47
2023-03-28T09:04:06.529Z,0.88
2023-03-28T09:06:40.797Z,0.50
2023-03-28T09:09:26.118Z,0.60
2023-03-28T09:12:10.607Z,0.52
2023-03-28T09:14:52.118Z,0.45
2023-03-28T09:17:41.974Z,0.40
2023-03-28T09:20:11.034Z,0.60
2023-03-28T09:22:49.899Z,0.50
2023-03-28T09:25:15.766Z,0.20
2023-03-28T09:28:00.499Z,0.60
2023-03-28T09:30:31.683Z,0.40
2023-03-28T09:32:59.252Z,0.52
2023-03-28T09:35:27.453Z,0.60
2023-03-28T09:37:56.534Z,0.60
2023-03-28T09:40:27.093Z,0.60
2023-03-28T09:43:05.104Z,0.50
2023-03-28T09:45:44.567Z,0.50
2023-03-28T09:48:19.934Z,0.90
2023-03-28T09:50:45.944Z,0.55
2023-03-28T09:53:19.351Z,0.40
2023-03-28T09:55:51.593Z,0.45
2023-03-28T09:58:24.641Z,0.28
2023-03-28T10:00:52.273Z,0.30
2023-03-28T10:03:34.297Z,0.40
2023-03-28T10:06:16.572Z,0.30
2023-03-28T10:08:42.476Z,0.47
2023-03-28T10:11:12.751Z,0.40
2023-03-28T10:13:57.167Z,0.20
2023-03-28T10:16:31.039Z,0.30
2023-03-28T10:18:57.407Z,0.45
2023-03-28T10:21:24.311Z,0.50
2023-03-28T10:24:01.659Z,0.25
2023-03-28T10:26:27.825Z,0.60
2023-03-28T10:28:54.445Z,0.20
2023-03-28T10:31:31.291Z,0.30
2023-03-28T10:34:00.273Z,0.52
2023-03-28T10:36:32.098Z,0.50
2023-03-28T10:38:58.620Z,0.25
2023-03-28T10:41:27.579Z,0.40
2023-03-28T10:43:54.249Z,0.20
2023-03-28T10:46:26.381Z,0.55
2023-03-28T10:48:57.509Z,0.40
2023-03-28T10:51:24.974Z,0.32
2023-03-28T10:54:09.871Z,0.40
2023-03-28T10:56:42.033Z,0.40
2023-03-28T10:59:26.706Z,0.28
2023-03-28T11:02:05.234Z,0.60
2023-03-28T11:04:46.169Z,1.00
2023-03-28T11:09:41.627Z,0.40
2023-03-28T11:12:26.566Z,0.30
2023-03-28T11:15:01.578Z,0.60
2023-03-28T11:17:33.378Z,0.40
2023-03-28T11:20:16.933Z,0.50
2023-03-28T11:23:02.811Z,0.60
2023-03-28T11:25:41.756Z,0.35
2023-03-28T11:28:07.671Z,0.43
2023-03-28T11:30:34.984Z,0.35
2023-03-28T11:33:27.927Z,0.60
2023-03-28T11:35:57.181Z,0.60
2023-03-28T11:38:29.185Z,0.65
2023-03-28T11:40:59.438Z,0.52
2023-03-28T11:43:32.378Z,0.40
2023-03-28T11:46:03.903Z,0.60
2023-03-28T11:48:38.722Z,0.40
2023-03-28T11:51:09.842Z,1.10
2023-03-28T11:53:39.491Z,0.40
2023-03-28T11:56:18.788Z,0.47
2023-03-28T11:58:47.405Z,0.68
2023-03-28T12:01:25.788Z,0.55
2023-03-28T12:04:01.342Z,0.50
2023-03-28T12:06:30.902Z,0.57
2023-03-28T12:09:00.373Z,0.57
2023-03-28T12:11:29.770Z,0.30
2023-03-28T12:14:11.673Z,0.50
2023-03-28T12:16:42.139Z,0.47
2023-03-28T12:19:13.215Z,0.47
2023-03-28T12:21:42.134Z,0.30
2023-03-28T12:24:21.390Z,0.50
2023-03-28T12:27:12.265Z,0.70
2023-03-28T12:32:38.607Z,0.60
2023-03-28T12:35:24.192Z,0.40
2023-03-28T12:38:09.418Z,1.25
2023-03-28T12:40:48.669Z,0.52
2023-03-28T12:43:16.560Z,0.40
2023-03-28T12:45:46.277Z,0.60
2023-03-28T12:48:15.658Z,0.40
2023-03-28T12:51:04.778Z,0.60
2023-03-28T12:53:32.208Z,0.57
2023-03-28T12:55:59.074Z,0.70
2023-03-28T12:58:30.109Z,0.60
2023-03-28T13:00:59.549Z,0.70
2023-03-28T13:03:45.079Z,0.50
2023-03-28T13:06:30.078Z,0.40
2023-03-28T13:09:17.263Z,0.60
2023-03-28T13:11:48.954Z,0.52
2023-03-28T13:14:35.418Z,0.47
2023-03-28T13:17:01.327Z,0.50
2023-03-28T13:19:56.749Z,0.50
2023-03-28T13:22:57.593Z,0.60
2023-03-28T13:25:29.330Z,0.30
2023-03-28T13:28:00.205Z,0.40
2023-03-28T13:30:33.985Z,0.40
2023-03-28T13:33:02.741Z,0.88
2023-03-28T13:35:36.123Z,1.00
2023-03-28T13:38:21.955Z,0.32
2023-03-28T13:40:56.076Z,1.23
2023-03-28T13:43:28.507Z,0.85
2023-03-28T13:45:57.506Z,0.52
2023-03-28T13:48:34.901Z,0.40
2023-03-28T13:51:03.269Z,0.80
2023-03-28T13:53:44.689Z,1.00
2023-03-28T13:56:22.998Z,0.65
2023-03-28T13:58:51.490Z,0.60
2023-03-28T14:01:50.385Z,0.65
2023-03-28T14:04:26.522Z,0.47
2023-03-28T14:06:53.141Z,0.60
2023-03-28T14:09:28.980Z,0.75
2023-03-28T14:12:00.377Z,0.50
2023-03-28T14:14:31.196Z,0.70
2023-03-28T14:19:26.550Z,0.73
2023-03-28T14:21:53.299Z,0.85
2023-03-28T14:24:24.323Z,0.68
2023-03-28T14:26:51.214Z,0.80
2023-03-28T14:29:18.798Z,0.68
2023-03-28T14:31:46.879Z,0.50
2023-03-28T14:34:15.707Z,0.60
2023-03-28T14:37:01.658Z,1.67
2023-03-28T14:39:29.529Z,0.40
2023-03-28T14:41:58.255Z,0.80
2023-03-28T14:44:26.364Z,0.82
2023-03-28T14:46:55.309Z,0.80
2023-03-28T14:49:23.123Z,1.75
2023-03-28T14:51:54.321Z,0.70
2023-03-28T14:56:46.626Z,0.50
2023-03-28T14:59:16.639Z,0.40
2023-03-28T15:02:05.113Z,0.50
2023-03-28T15:04:31.541Z,0.50
2023-03-28T15:06:58.238Z,0.47
2023-03-28T15:09:28.944Z,0.68
2023-03-28T15:11:55.915Z,1.08
2023-03-28T15:14:33.864Z,1.10
2023-03-28T15:17:00.544Z,0.80
2023-03-28T15:19:31.617Z,0.98
2023-03-28T15:22:00.335Z,0.65
2023-03-28T15:24:27.220Z,1.05
2023-03-28T15:26:54.521Z,0.60
2023-03-28T15:29:21.075Z,0.85
2023-03-28T15:31:55.974Z,1.00
2023-03-28T15:34:23.320Z,1.08
2023-03-28T15:36:53.397Z,1.02
2023-03-28T15:39:25.964Z,0.73
2023-03-28T15:42:02.891Z,0.70
2023-03-28T15:44:52.498Z,2.03
2023-03-28T15:47:22.491Z,1.10
2023-03-28T15:49:48.596Z,0.60
2023-03-28T15:52:16.454Z,0.95
2023-03-28T15:54:43.929Z,0.70
2023-03-28T15:57:11.682Z,0.70
2023-03-28T15:59:40.026Z,1.73
2023-03-28T16:02:28.853Z,1.00
2023-03-28T16:05:01.542Z,1.20
2023-03-28T16:07:31.656Z,1.20
2023-03-28T16:09:58.465Z,0.85
2023-03-28T16:12:25.540Z,1.15
2023-03-28T16:14:52.263Z,1.02
2023-03-28T16:17:25.144Z,0.55
2023-03-28T16:19:51.969Z,0.63
2023-03-28T16:22:18.313Z,0.75
2023-03-28T16:24:44.257Z,1.05
2023-03-28T16:27:10.192Z,1.00
2023-03-28T16:29:36.026Z,1.20
2023-03-28T16:32:55.183Z,0.70
2023-03-28T16:35:22.160Z,0.80
2023-03-28T16:37:48.455Z,0.77
2023-03-28T16:40:15.157Z,0.90
2023-03-28T16:42:41.015Z,1.10
2023-03-28T16:45:10.741Z,1.20
2023-03-28T16:47:38.168Z,1.42
2023-03-28T16:50:06.310Z,0.80
2023-03-28T16:52:32.161Z,1.05
2023-03-28T16:55:03.112Z,0.88
2023-03-28T16:57:28.980Z,2.13
2023-03-28T16:59:55.046Z,1.25
2023-03-28T17:02:21.039Z,1.52
2023-03-28T17:04:50.290Z,1.08
2023-03-28T17:07:16.630Z,1.92
2023-03-28T17:09:42.579Z,1.73
2023-03-28T17:12:11.144Z,1.05
2023-03-28T17:14:36.996Z,0.60
2023-03-28T17:17:02.942Z,0.90
2023-03-28T17:19:28.821Z,1.00
2023-03-28T17:21:56.224Z,1.08
2023-03-28T17:24:23.527Z,0.80
2023-03-28T17:26:49.696Z,0.77
2023-03-28T17:29:15.791Z,1.88
2023-03-28T17:31:42.226Z,1.17
2023-03-28T17:34:08.700Z,1.70
2023-03-28T17:36:35.398Z,1.10
2023-03-28T17:39:01.965Z,2.05
2023-03-28T17:41:28.674Z,1.27
2023-03-28T17:43:55.873Z,1.48
2023-03-28T17:46:22.141Z,0.93
2023-03-28T17:48:48.151Z,1.00
2023-03-28T17:51:14.827Z,1.27
2023-03-28T17:53:42.037Z,1.50
2023-03-28T17:56:09.155Z,1.20
2023-03-28T17:58:35.271Z,1.55
2023-03-28T18:01:01.295Z,1.90
2023-03-28T18:03:27.974Z,1.83
2023-03-28T18:05:54.636Z,1.33
2023-03-28T18:08:21.272Z,1.48
2023-03-28T18:10:47.193Z,1.38
2023-03-28T18:13:14.183Z,2.00
2023-03-28T18:15:42.820Z,2.58
2023-03-28T18:18:11.892Z,1.70
2023-03-28T18:20:46.806Z,1.90
2023-03-28T18:23:13.341Z,2.10
2023-03-28T18:25:39.615Z,2.38
2023-03-28T18:28:06.044Z,1.73
2023-03-28T18:30:31.916Z,2.35
2023-03-28T18:32:58.358Z,2.20
2023-03-28T18:35:25.666Z,2.03
2023-03-28T18:37:51.484Z,2.15
2023-03-28T18:40:18.053Z,2.15
2023-03-28T18:42:44.586Z,2.47
2023-03-28T18:45:11.300Z,2.15
2023-03-28T18:47:38.537Z,4.05
2023-03-28T18:50:05.322Z,2.38
2023-03-28T18:52:32.161Z,2.95
2023-03-28T18:54:58.397Z,2.72
2023-03-28T18:57:24.425Z,3.00
2023-03-28T18:59:52.269Z,2.25
2023-03-28T19:02:30.583Z,2.88
2023-03-28T19:04:56.509Z,2.67
2023-03-28T19:07:22.444Z,3.00
2023-03-28T19:09:48.418Z,2.17
2023-03-28T19:12:14.658Z,2.42
2023-03-28T19:14:40.468Z,2.08
2023-03-28T19:17:06.827Z,2.50
2023-03-28T19:19:36.588Z,2.25
2023-03-28T19:22:05.250Z,2.10
2023-03-28T19:24:31.427Z,2.28
2023-03-28T19:26:59.345Z,1.70
2023-03-28T19:29:25.629Z,1.90
2023-03-28T19:31:51.738Z,1.75
2023-03-28T19:34:18.501Z,1.50
2023-03-28T19:36:45.463Z,1.70
2023-03-28T19:39:11.526Z,2.38
2023-03-28T19:41:37.391Z,1.88
2023-03-28T19:44:03.326Z,1.75
2023-03-28T19:46:33.255Z,1.42
2023-03-28T19:49:02.352Z,1.85
2023-03-28T19:51:28.949Z,1.48
2023-03-28T19:53:54.978Z,3.03
2023-03-28T19:56:22.818Z,1.55
2023-03-28T19:58:49.075Z,2.70
2023-03-28T20:01:20.447Z,2.17
2023-03-28T20:03:48.949Z,3.30
2023-03-28T20:06:16.200Z,3.33
2023-03-28T20:08:42.129Z,2.85
2023-03-28T20:11:08.974Z,3.17
2023-03-28T20:13:35.674Z,3.40
2023-03-28T20:16:02.684Z,2.85
2023-03-28T20:18:28.515Z,3.15
2023-03-28T20:20:55.449Z,2.85
2023-03-28T20:23:23.066Z,1.80
2023-03-28T20:25:49.398Z,2.28
2023-03-28T20:28:15.561Z,2.13
2023-03-28T20:30:43.067Z,2.83
2023-03-28T20:33:08.876Z,2.05
2023-03-28T20:35:35.265Z,2.42
2023-03-28T20:38:01.239Z,2.25
2023-03-28T20:40:27.137Z,2.30
2023-03-28T20:42:53.661Z,1.52
2023-03-28T20:45:22.850Z,1.85
2023-03-28T20:47:55.377Z,2.53
2023-03-28T20:50:36.903Z,2.47
2023-03-28T20:53:03.672Z,2.45
2023-03-28T20:55:30.610Z,1.77
2023-03-28T20:57:56.423Z,2.63
2023-03-28T21:00:24.414Z,3.65
2023-03-28T21:02:54.770Z,2.50
2023-03-28T21:05:21.759Z,2.40
2023-03-28T21:07:48.294Z,2.35
2023-03-28T21:10:14.812Z,2.53
2023-03-28T21:12:43.022Z,2.78
2023-03-28T21:15:09.618Z,2.67
2023-03-28T21:17:36.834Z,2.83
2023-03-28T21:20:06.398Z,2.63
2023-03-28T21:22:33.268Z,3.35
2023-03-28T21:24:59.530Z,3.10
2023-03-28T21:27:25.652Z,2.47
2023-03-28T21:29:51.767Z,3.13
2023-03-28T21:32:17.701Z,2.38
2023-03-28T21:34:44.132Z,4.13
2023-03-28T21:37:11.828Z,2.42
2023-03-28T21:39:38.748Z,2.15
2023-03-28T21:42:05.172Z,2.45
2023-03-28T21:44:30.916Z,2.22
2023-03-28T21:46:57.317Z,2.58
2023-03-28T21:49:23.702Z,3.13
2023-03-28T21:51:49.421Z,4.05
2023-03-28T21:54:16.001Z,2.65
2023-03-28T21:56:41.797Z,2.47
2023-03-28T21:59:07.736Z,3.25
2023-03-28T22:01:33.643Z,3.63
2023-03-28T22:03:59.965Z,2.20
2023-03-28T22:06:25.912Z,3.03
2023-03-28T22:08:51.904Z,1.95
2023-03-28T22:11:19.767Z,1.95
2023-03-28T22:13:49.227Z,2.83
2023-03-28T22:16:15.893Z,3.10
2023-03-28T22:18:48.786Z,2.63
2023-03-28T22:21:14.608Z,2.72
2023-03-28T22:23:41.784Z,3.53
2023-03-28T22:26:08.492Z,2.53
2023-03-28T22:28:34.357Z,2.88
2023-03-28T22:31:00.414Z,2.45
2023-03-28T22:33:30.399Z,2.90
2023-03-28T22:35:57.202Z,3.03
2023-03-28T22:38:22.934Z,2.77
2023-03-28T22:40:48.960Z,2.80
2023-03-28T22:43:15.406Z,2.57
2023-03-28T22:45:41.216Z,3.20
2023-03-28T22:48:13.807Z,2.73
2023-03-28T22:50:45.691Z,3.23
2023-03-28T22:53:13.479Z,2.70
2023-03-28T22:55:39.633Z,2.77
2023-03-28T22:58:05.483Z,2.80
2023-03-28T23:00:31.856Z,2.30
2023-03-28T23:02:57.637Z,2.57
2023-03-28T23:05:23.503Z,3.37
2023-03-28T23:07:50.042Z,2.90
2023-03-28T23:10:17.363Z,4.33
2023-03-28T23:12:43.322Z,3.27
2023-03-28T23:15:09.567Z,2.77
2023-03-28T23:17:35.360Z,2.87
2023-03-28T23:20:01.506Z,3.73
2023-03-28T23:22:27.388Z,3.27
2023-03-28T23:24:53.125Z,3.30
2023-03-28T23:27:19.141Z,2.70
2023-03-28T23:29:45.020Z,3.20
2023-03-28T23:32:10.811Z,3.13
2023-03-28T23:34:36.795Z,3.63
2023-03-28T23:37:02.906Z,2.93
2023-03-28T23:39:28.748Z,2.80
2023-03-28T23:41:54.976Z,4.23
2023-03-28T23:44:20.681Z,2.80
2023-03-28T23:46:49.087Z,3.20
2023-03-28T23:49:15.637Z,2.87
2023-03-28T23:51:41.439Z,3.63
2023-03-28T23:54:07.181Z,2.90
2023-03-28T23:56:32.897Z,3.00
2023-03-28T23:58:58.635Z,2.93
